3WI4 weather

Flying 'O' Airport
Wausau, Wisconsin, United States

Public forecast

Using degrees Fahrenheit for public forecast. Weather courtesy of forecast.io.

METAR (pilot weather report)

Closest report is Wausau Downtown Airport, 9.5 nm (17.7 km) W. Retrieved 2019/09/22 16:54 UTC (37 minutes ago):

KAUW 221654Z AUTO 30008KT 10SM OVC095 19/17 A2981 RMK AO2 RAE1559 SLP093 P0000 T01890167

TAF (pilot weather forecast)

Closest forecast is Wausau Downtown Airport, 9.5 nm (17.7 km) W. Retrieved 2019/09/22 12:30 UTC (5 hours ago):

TAF KAUW 221129Z 2212/2312 23005KT 6SM -SHRA OVC008 TEMPO 2212/2214 2SM SHRA BR SCT008 OVC020 FM221400 27005KT P6SM BKN010 OVC035 FM221600 28005KT P6SM SCT012 OVC040 FM230000 32005KT P6SM -SHRA SCT018 OVC040 FM230500 31006KT P6SM -SHRA OVC015 FM230800 29006KT P6SM BKN023